Time;durP1;ratioP1;P1;durP2;ratioP2;P2;SDS_P1;SDS_P2;PMS_P1;PMS_P2;Temp;Humidity;BMP_temperature;BMP_pressure;BME280_temperature;BME280_humidity;BME280_pressure;Samples;Min_cycle;Max_cycle;Signal;HPM_P1;HPM_P2
2021/11/30 08:43:36;;;;;;;;;29.00;29.00;;;;;4.84;88.27;101348.97;5134670;27;45712;-78
2021/11/30 08:46:02;;;;;;;;;24.50;23.50;;;;;4.90;88.15;101353.75;5117604;27;45356;-78
2021/11/30 08:48:27;;;;;;;;;24.50;22.50;;;;;4.94;88.48;101339.41;5116211;27;45326;-75
2021/11/30 08:50:55;;;;;;;;;27.75;25.75;;;;;5.03;87.94;101354.47;5132152;27;45353;-77
2021/11/30 08:53:21;;;;;;;;;26.25;22.75;;;;;4.99;87.81;101337.22;5138605;27;46106;-77
2021/11/30 08:55:46;;;;;;;;;27.75;22.75;;;;;5.08;87.80;101337.44;5138407;27;45222;-76
2021/11/30 08:58:12;;;;;;;;;30.00;27.00;;;;;5.12;87.82;101342.34;5137466;27;45179;-77
2021/11/30 09:00:38;;;;;;;;;32.00;30.75;;;;;5.11;87.55;101326.66;5139140;27;45217;-76
2021/11/30 09:03:04;;;;;;;;;30.00;28.25;;;;;5.16;87.27;101335.03;5136461;27;48345;-77
2021/11/30 09:05:30;;;;;;;;;38.00;33.00;;;;;5.15;87.42;101322.84;5138084;27;45280;-78
2021/11/30 09:07:56;;;;;;;;;34.00;28.50;;;;;5.17;87.34;101332.28;5122161;27;45365;-77
2021/11/30 09:10:23;;;;;;;;;30.50;29.25;;;;;5.22;87.37;101336.34;5117992;27;45427;-78
2021/11/30 09:12:50;;;;;;;;;29.00;25.25;;;;;5.33;87.15;101351.28;5117197;27;45463;-78
2021/11/30 09:15:16;;;;;;;;;33.50;28.25;;;;;5.35;87.09;101352.84;5115825;27;45365;-78
2021/11/30 09:17:42;;;;;;;;;28.50;25.25;;;;;5.36;86.85;101343.94;5117207;27;45219;-77
2021/11/30 09:20:09;;;;;;;;;35.25;30.25;;;;;5.43;87.15;101346.94;5116881;27;45469;-75
2021/11/30 09:22:34;;;;;;;;;32.25;24.50;;;;;5.39;86.98;101337.63;5115385;27;48665;-75
2021/11/30 09:25:03;;;;;;;;;13.00;12.75;;;;;5.40;87.15;101329.59;5115410;27;45413;-77
2021/11/30 09:27:29;;;;;;;;;33.75;28.75;;;;;5.50;86.65;101360.44;5115670;27;45199;-75
2021/11/30 09:29:54;;;;;;;;;30.25;27.75;;;;;5.43;86.78;101352.22;5116600;27;45291;-75
2021/11/30 09:32:20;;;;;;;;;42.25;34.00;;;;;5.38;86.61;101352.59;5114986;27;48330;-78
2021/11/30 09:34:46;;;;;;;;;27.00;25.25;;;;;5.43;86.66;101350.44;5115476;27;45227;-75
2021/11/30 09:37:11;;;;;;;;;36.25;33.00;;;;;5.45;86.86;101358.22;5115310;27;45364;-78
2021/11/30 09:39:37;;;;;;;;;33.50;31.00;;;;;5.50;86.59;101360.44;5116437;27;45282;-77
2021/11/30 09:42:04;;;;;;;;;34.00;32.25;;;;;5.45;86.26;101349.47;5130970;27;45375;-78
2021/11/30 09:44:31;;;;;;;;;39.50;34.25;;;;;5.54;86.56;101364.53;5124005;27;45351;-77
2021/11/30 09:46:59;;;;;;;;;39.75;34.50;;;;;5.51;86.35;101362.16;5122392;27;45364;-78
2021/11/30 09:49:24;;;;;;;;;33.50;32.50;;;;;5.57;86.50;101364.28;5123279;27;45745;-79
2021/11/30 09:51:50;;;;;;;;;33.50;33.25;;;;;5.52;86.75;101343.56;5124178;27;45509;-77
2021/11/30 09:54:16;;;;;;;;;26.75;26.75;;;;;5.55;86.42;101359.13;5124744;27;45559;-76
2021/11/30 09:56:42;;;;;;;;;36.50;32.50;;;;;5.52;86.61;101345.34;5130315;27;45296;-76
2021/11/30 09:59:07;;;;;;;;;38.25;33.75;;;;;5.58;86.33;101347.50;5124724;27;46264;-77
2021/11/30 10:01:33;;;;;;;;;36.25;34.00;;;;;5.63;86.66;101342.66;5124136;27;46244;-76
2021/11/30 10:04:00;;;;;;;;;34.25;32.00;;;;;5.62;86.52;101333.06;5122450;27;45759;-79
2021/11/30 10:06:26;;;;;;;;;34.50;31.75;;;;;5.58;86.63;101323.75;5125209;27;45421;-78
2021/11/30 10:08:55;;;;;;;;;28.25;27.00;;;;;5.64;86.37;101328.53;5122859;27;47311;-78
2021/11/30 10:11:37;;;;;;;;;35.25;31.75;;;;;5.60;86.68;101324.44;5124128;27;45461;-78
2021/11/30 10:14:14;;;;;;;;;31.75;29.50;;;;;5.74;87.34;101338.28;5125314;27;45293;-79
2021/11/30 10:16:48;;;;;;;;;39.25;34.75;;;;;5.75;87.06;101332.88;5125287;27;45217;-80
2021/11/30 10:19:13;;;;;;;;;39.25;33.25;;;;;5.66;87.02;101316.03;5123619;27;45462;-77
2021/11/30 10:21:38;;;;;;;;;25.50;23.00;;;;;5.76;87.02;101325.81;5121377;27;48410;-77
2021/11/30 10:24:06;;;;;;;;;37.50;32.75;;;;;5.71;87.06;101320.91;5122581;27;45270;-77
2021/11/30 10:26:33;;;;;;;;;38.50;34.00;;;;;5.87;86.82;101343.41;5123256;27;45224;-77
2021/11/30 10:29:04;;;;;;;;;40.00;33.25;;;;;5.86;86.70;101334.63;5121859;27;47027;-77
2021/11/30 10:31:42;;;;;;;;;30.75;28.25;;;;;5.93;86.74;101343.72;5122722;27;46379;-76
2021/11/30 10:34:18;;;;;;;;;35.25;33.75;;;;;5.91;86.74;101339.53;5121808;27;45414;-80
2021/11/30 10:36:44;;;;;;;;;36.25;33.00;;;;;5.98;86.86;101342.50;5123258;27;45262;-77
2021/11/30 10:39:24;;;;;;;;;34.75;32.00;;;;;5.93;86.72;101343.72;5122398;27;46037;-78
2021/11/30 10:41:51;;;;;;;;;36.00;32.00;;;;;6.02;87.27;101354.47;5123206;27;45389;-78
2021/11/30 10:44:28;;;;;;;;;33.25;28.75;;;;;6.04;86.77;101349.91;5121571;27;45920;-78
2021/11/30 10:47:06;;;;;;;;;26.00;24.00;;;;;5.98;87.02;101324.03;5123052;27;45395;-76
2021/11/30 10:49:32;;;;;;;;;36.50;34.75;;;;;6.09;87.26;101336.34;5122399;27;45556;-76
2021/11/30 10:52:00;;;;;;;;;38.75;33.00;;;;;6.18;87.03;101339.03;5122286;27;45386;-76
2021/11/30 10:54:35;;;;;;;;;42.75;36.00;;;;;6.21;86.73;101332.66;5120807;27;45815;-78
2021/11/30 10:57:02;;;;;;;;;35.00;31.75;;;;;6.28;86.76;101338.25;5122853;27;45388;-78
2021/11/30 10:59:29;;;;;;;;;38.75;34.50;;;;;6.25;86.68;101327.94;5123057;27;45415;-77
2021/11/30 11:01:54;;;;;;;;;37.75;34.50;;;;;6.25;86.58;101323.50;5123717;27;45688;-78
2021/11/30 11:04:29;;;;;;;;;37.00;33.75;;;;;6.35;86.75;101328.00;5121942;27;45300;-79
2021/11/30 11:07:12;;;;;;;;;30.75;30.25;;;;;6.34;87.11;101311.31;5121106;27;45371;-78
2021/11/30 11:09:50;;;;;;;;;33.00;31.00;;;;;6.35;86.62;101305.09;5122132;27;45525;-75
2021/11/30 11:12:27;;;;;;;;;37.25;33.00;;;;;6.52;86.48;101323.91;5122104;27;45426;-75
2021/11/30 11:14:53;;;;;;;;;34.50;31.75;;;;;6.52;86.76;101308.91;5121134;27;45355;-76
2021/11/30 11:17:29;;;;;;;;;35.25;31.50;;;;;6.48;86.35;101302.22;5122187;27;45214;-77
2021/11/30 11:19:55;;;;;;;;;32.25;30.50;;;;;6.59;86.46;101301.28;5122434;27;45562;-75
2021/11/30 11:22:24;;;;;;;;;34.00;30.50;;;;;6.60;86.17;101296.81;5120764;27;48318;-76
2021/11/30 11:24:51;;;;;;;;;29.25;29.25;;;;;6.67;86.01;101297.94;5121245;27;45377;-76
2021/11/30 11:27:27;;;;;;;;;34.25;31.75;;;;;6.70;86.01;101302.97;5122186;27;45489;-76
2021/11/30 11:29:53;;;;;;;;;34.50;31.00;;;;;6.66;86.64;101291.84;5120265;27;45442;-78
2021/11/30 11:32:18;;;;;;;;;37.75;30.25;;;;;6.73;86.39;101291.31;5123397;27;46059;-78
2021/11/30 11:34:45;;;;;;;;;25.75;24.00;;;;;6.73;86.59;101294.78;5122304;27;45238;-78
2021/11/30 11:37:11;;;;;;;;;30.50;27.25;;;;;6.73;86.04;101292.13;5121030;27;45228;-79
2021/11/30 11:39:38;;;;;;;;;33.75;30.00;;;;;6.82;86.19;101293.13;5121378;27;45468;-79
2021/11/30 11:42:09;;;;;;;;;33.00;31.25;;;;;6.84;86.54;101275.34;5105179;27;46986;-79
2021/11/30 11:44:36;;;;;;;;;26.50;25.75;;;;;6.80;86.02;101260.72;5099803;27;45368;-76
2021/11/30 11:47:04;;;;;;;;;28.50;28.50;;;;;6.80;85.92;101258.09;5100819;27;45225;-75
2021/11/30 11:49:37;;;;;;;;;32.00;30.00;;;;;6.91;86.37;101276.47;5099343;27;47134;-78
2021/11/30 11:52:04;;;;;;;;;37.75;33.50;;;;;6.86;86.23;101257.56;5100899;27;47365;-78
2021/11/30 11:54:34;;;;;;;;;31.50;28.75;;;;;6.89;86.23;101262.53;5102106;27;45408;-75
2021/11/30 11:57:08;;;;;;;;;30.25;26.50;;;;;6.90;86.01;101261.59;5101852;27;45565;-77
2021/11/30 11:59:44;;;;;;;;;27.75;25.25;;;;;6.92;85.80;101262.25;5101240;27;45348;-77
2021/11/30 12:02:25;;;;;;;;;31.00;27.50;;;;;6.94;85.86;101257.69;5100756;27;47264;-76
2021/11/30 12:05:04;;;;;;;;;33.25;29.25;;;;;6.98;86.11;101260.06;5101341;27;45358;-79
2021/11/30 12:07:51;;;;;;;;;30.00;27.00;;;;;7.03;86.26;101258.66;5100245;27;45230;-75
2021/11/30 12:10:20;;;;;;;;;28.50;26.50;;;;;7.06;86.23;101268.13;5099837;27;46500;-76
2021/11/30 12:13:00;;;;;;;;;25.00;23.25;;;;;7.10;85.99;101255.47;5101036;27;46691;-76
2021/11/30 12:15:30;;;;;;;;;27.25;25.25;;;;;7.13;86.34;101247.28;5100854;27;45221;-75
2021/11/30 12:18:28;;;;;;;;;25.75;25.00;;;;;7.23;85.84;101263.13;5102306;27;45447;-75
2021/11/30 12:21:16;;;;;;;;;27.00;25.75;;;;;7.24;85.68;101264.81;5101130;27;45359;-76
2021/11/30 12:23:44;;;;;;;;;33.00;28.25;;;;;7.23;85.94;101257.84;5100682;27;45281;-75
2021/11/30 12:26:41;;;;;;;;;28.00;26.25;;;;;7.31;86.02;101252.69;5100261;27;45353;-76
2021/11/30 12:29:19;;;;;;;;;30.00;28.75;;;;;7.33;85.58;101238.34;5097928;27;45298;-76
2021/11/30 12:31:46;;;;;;;;;29.50;27.75;;;;;7.36;85.86;101239.88;5100267;27;45282;-76
2021/11/30 12:34:12;;;;;;;;;28.25;25.50;;;;;7.33;85.55;101224.28;5101529;27;45454;-77
2021/11/30 12:36:41;;;;;;;;;27.67;26.67;;;;;7.41;85.37;101240.31;5099682;27;45273;-77
2021/11/30 12:39:12;;;;;;;;;25.00;24.00;;;;;7.41;85.07;101242.09;5101009;27;45368;-77
2021/11/30 12:41:40;;;;;;;;;29.75;27.25;;;;;7.35;85.68;101225.00;5112826;27;45949;-77
2021/11/30 12:44:41;;;;;;;;;27.25;26.75;;;;;7.38;85.85;101222.06;5124405;27;46253;-77
2021/11/30 12:47:19;;;;;;;;;33.50;28.75;;;;;7.43;85.50;101225.09;5110408;27;45738;-78
2021/11/30 12:49:45;;;;;;;;;28.75;26.75;;;;;7.43;85.29;101222.47;5120910;27;45487;-76
2021/11/30 12:52:32;;;;;;;;;34.25;32.00;;;;;7.37;85.84;101217.75;5120464;27;45491;-78
2021/11/30 12:55:00;;;;;;;;;26.25;25.25;;;;;7.39;85.92;101226.38;5121705;27;47596;-78
2021/11/30 12:57:29;;;;;;;;;28.75;26.00;;;;;7.42;85.94;101230.53;5119334;27;45252;-78
2021/11/30 13:00:08;;;;;;;;;29.00;25.25;;;;;7.29;86.20;101214.97;5118870;27;45418;-78
2021/11/30 13:02:36;;;;;;;;;25.25;23.75;;;;;7.41;85.96;101234.16;5121751;27;45398;-78
2021/11/30 13:05:07;;;;;;;;;27.00;26.50;;;;;7.34;86.06;101231.25;5112768;27;47577;-79
2021/11/30 13:07:33;;;;;;;;;27.50;26.25;;;;;7.33;85.93;101234.88;5097941;27;45302;-78
2021/11/30 13:09:59;;;;;;;;;27.50;24.75;;;;;7.28;85.91;101218.59;5099447;27;45258;-78
2021/11/30 13:12:29;;;;;;;;;29.50;27.00;;;;;7.24;86.32;101210.09;5103067;27;45180;-76
2021/11/30 13:14:56;;;;;;;;;24.75;20.75;;;;;7.35;86.14;101208.28;5100707;27;46419;-78
2021/11/30 13:17:29;;;;;;;;;27.50;23.50;;;;;7.33;86.44;101197.84;5100398;27;45285;-78
2021/11/30 13:19:54;;;;;;;;;24.75;23.50;;;;;7.46;86.03;101202.84;5107314;27;45352;-78
2021/11/30 13:22:20;;;;;;;;;24.50;21.25;;;;;7.50;86.37;101191.00;5113777;27;46079;-76
2021/11/30 13:24:51;;;;;;;;;24.50;22.50;;;;;7.56;86.38;101200.16;5113860;27;45356;-76
2021/11/30 13:27:26;;;;;;;;;14.33;14.33;;;;;7.63;86.16;101211.84;5115200;27;45211;-76
2021/11/30 13:30:14;;;;;;;;;19.33;19.33;;;;;7.68;86.08;101212.25;5115450;27;45210;-75
2021/11/30 13:32:46;;;;;;;;;26.00;22.00;;;;;7.72;86.22;101206.69;5106367;27;45508;-78
2021/11/30 13:35:17;;;;;;;;;22.67;20.67;;;;;7.75;86.29;101206.41;5105293;27;45276;-78
2021/11/30 13:38:00;;;;;;;;;21.50;20.00;;;;;7.68;86.33;101184.97;5107438;27;45348;-77
2021/11/30 13:40:51;;;;;;;;;17.00;16.33;;;;;7.78;86.10;101184.94;5104370;27;45261;-78
2021/11/30 13:43:29;;;;;;;;;16.33;15.00;;;;;7.92;86.19;101200.34;5115361;27;46196;-78
2021/11/30 13:46:09;;;;;;;;;20.00;18.33;;;;;7.99;86.00;101220.94;5106057;27;46220;-79
2021/11/30 13:48:44;;;;;;;;;16.67;16.67;;;;;7.93;85.88;101207.31;5115791;27;45197;-77
2021/11/30 13:51:20;;;;;;;;;20.00;17.33;;;;;7.94;86.02;101208.97;5115103;27;44725;-76
2021/11/30 13:53:56;;;;;;;;;17.33;17.33;;;;;8.01;86.06;101216.31;5113721;27;45229;-77
2021/11/30 13:56:27;;;;;;;;;19.00;18.33;;;;;7.88;86.36;101193.69;5112572;27;45323;-77
2021/11/30 13:59:10;;;;;;;;;18.67;18.67;;;;;7.92;86.20;101200.34;5113561;27;44729;-77
2021/11/30 14:04:13;;;;;;;;;16.00;16.00;;;;;8.00;85.60;101196.97;5114507;27;44760;-77
2021/11/30 14:06:39;;;;;;;;;19.33;19.00;;;;;7.91;85.75;101185.47;5115027;27;45320;-77
2021/11/30 14:09:15;;;;;;;;;16.33;16.33;;;;;8.05;85.73;101193.91;5114424;27;45273;-77
2021/11/30 14:11:50;;;;;;;;;25.33;24.33;;;;;8.03;86.39;101195.84;5112956;27;45435;-77
2021/11/30 14:14:18;;;;;;;;;22.67;22.67;;;;;8.00;86.01;101193.50;5112311;27;45178;-77
2021/11/30 14:16:54;;;;;;;;;27.33;22.67;;;;;8.07;86.63;101199.84;5114353;27;45303;-76
2021/11/30 14:19:40;;;;;;;;;22.33;20.67;;;;;8.02;86.58;101194.19;5113890;27;45304;-76
2021/11/30 14:22:10;;;;;;;;;23.33;20.33;;;;;8.08;87.08;101206.81;5115548;27;45440;-76
2021/11/30 14:24:54;;;;;;;;;20.33;16.67;;;;;8.07;87.30;101215.75;5111902;27;46290;-77
2021/11/30 14:27:21;;;;;;;;;25.67;21.33;;;;;7.91;87.51;101182.81;5113828;27;45227;-77
2021/11/30 14:29:48;;;;;;;;;20.33;20.33;;;;;7.95;87.08;101183.34;5114275;27;45250;-77
2021/11/30 14:32:31;;;;;;;;;22.67;19.67;;;;;8.03;87.29;101191.41;5106973;27;45377;-77
2021/11/30 14:35:06;;;;;;;;;21.00;20.00;;;;;8.04;86.92;101202.81;5114342;27;45222;-75
2021/11/30 14:37:53;;;;;;;;;21.67;21.67;;;;;8.06;87.40;101192.91;5111171;27;48282;-77
2021/11/30 14:40:24;;;;;;;;;21.00;19.67;;;;;7.97;87.59;101176.09;5114815;27;45368;-77
2021/11/30 14:43:03;;;;;;;;;24.67;22.33;;;;;7.98;87.38;101193.63;5112960;27;45293;-76
2021/11/30 14:45:40;;;;;;;;;22.00;22.00;;;;;8.02;87.33;101189.72;5114969;27;45417;-77
2021/11/30 14:48:22;;;;;;;;;20.00;19.00;;;;;7.91;87.29;101180.16;5112462;27;46996;-77
2021/11/30 14:50:52;;;;;;;;;21.00;19.67;;;;;8.00;88.07;101196.13;5112156;27;45338;-77
2021/11/30 14:53:25;;;;;;;;;20.67;19.67;;;;;7.99;88.13;101189.19;5114979;27;45184;-76
2021/11/30 14:56:01;;;;;;;;;20.33;19.67;;;;;7.96;88.05;101193.78;5111478;27;47995;-75
2021/11/30 14:58:34;;;;;;;;;26.67;25.67;;;;;7.91;87.79;101190.75;5114026;27;45312;-78
2021/11/30 15:01:09;;;;;;;;;22.33;21.67;;;;;7.92;88.14;101189.75;5112729;27;45320;-76
2021/11/30 15:03:42;;;;;;;;;25.00;21.67;;;;;7.78;87.96;101171.72;5113029;27;44639;-78
2021/11/30 15:06:09;;;;;;;;;27.00;24.00;;;;;7.90;88.22;101182.94;5115239;27;45659;-77
2021/11/30 15:08:37;;;;;;;;;22.67;22.67;;;;;7.88;88.30;101175.16;5111998;27;46342;-77
2021/11/30 15:11:09;;;;;;;;;22.33;21.33;;;;;7.87;88.28;101170.81;5110662;27;45758;-77
2021/11/30 15:13:38;;;;;;;;;21.33;21.33;;;;;7.89;88.52;101183.91;5113199;27;44700;-76
2021/11/30 15:16:05;;;;;;;;;25.00;21.67;;;;;7.83;88.27;101166.81;5110802;27;45415;-78
2021/11/30 15:18:31;;;;;;;;;22.33;21.00;;;;;7.88;88.29;101174.31;5111600;27;45237;-77
2021/11/30 15:20:56;;;;;;;;;25.00;22.00;;;;;7.92;88.19;101175.69;5114709;27;44607;-76
2021/11/30 15:23:26;;;;;;;;;25.67;24.33;;;;;7.95;87.97;101183.34;5113707;27;45291;-78
2021/11/30 15:25:59;;;;;;;;;24.00;22.67;;;;;7.93;88.07;101172.88;5112312;27;45362;-78
2021/11/30 15:28:25;;;;;;;;;26.00;25.67;;;;;7.85;87.88;101167.50;5112222;27;45646;-77
2021/11/30 15:30:50;;;;;;;;;26.67;24.33;;;;;7.91;88.36;101166.09;5115629;27;45297;-78
2021/11/30 15:33:37;;;;;;;;;28.33;24.00;;;;;7.86;88.15;101161.22;5112218;27;45971;-77
2021/11/30 15:36:03;;;;;;;;;22.33;22.33;;;;;7.65;88.55;101111.16;5114774;27;45331;-78
2021/11/30 15:38:28;;;;;;;;;25.00;24.00;;;;;7.94;88.09;101158.66;5114755;27;45359;-79
2021/11/30 15:40:53;;;;;;;;;25.00;23.00;;;;;7.96;88.33;101163.81;5115998;27;45723;-78
2021/11/30 15:43:19;;;;;;;;;20.33;19.33;;;;;7.96;88.12;101145.28;5128481;27;45308;-78
2021/11/30 15:45:45;;;;;;;;;28.67;24.67;;;;;7.99;87.80;101157.41;5122597;27;47146;-77
2021/11/30 15:48:10;;;;;;;;;25.67;21.67;;;;;7.99;88.19;101152.13;5127415;27;45381;-76
2021/11/30 15:50:35;;;;;;;;;21.33;20.33;;;;;7.99;88.22;101149.47;5121407;27;45933;-79
2021/11/30 15:53:01;;;;;;;;;26.67;25.00;;;;;7.91;88.08;101145.75;5121631;27;45470;-78
2021/11/30 15:55:32;;;;;;;;;27.67;23.33;;;;;7.98;87.89;101150.44;5121673;27;45229;-79
2021/11/30 15:57:58;;;;;;;;;21.67;21.67;;;;;7.98;87.89;101130.09;5121395;27;46340;-77
2021/11/30 16:00:23;;;;;;;;;24.67;24.67;;;;;7.98;87.70;101151.28;5119695;27;45667;-78
2021/11/30 16:02:49;;;;;;;;;18.33;18.00;;;;;7.94;87.56;101147.25;5119674;27;45253;-77
2021/11/30 16:05:14;;;;;;;;;27.33;23.33;;;;;7.98;87.93;101156.56;5121262;27;45263;-76
2021/11/30 16:07:40;;;;;;;;;19.67;19.67;;;;;7.97;87.68;101146.97;5120325;27;47091;-76
2021/11/30 16:10:06;;;;;;;;;22.33;20.67;;;;;8.00;87.91;101148.50;5121485;27;45264;-76
2021/11/30 16:12:31;;;;;;;;;23.67;22.67;;;;;8.04;87.45;101141.91;5121263;27;45336;-76
2021/11/30 16:14:57;;;;;;;;;23.33;22.00;;;;;8.05;87.60;101133.81;5121153;27;45214;-76
2021/11/30 16:17:22;;;;;;;;;27.00;25.00;;;;;8.03;87.58;101119.91;5119440;27;46902;-75
2021/11/30 16:19:49;;;;;;;;;27.67;26.67;;;;;8.02;87.07;101120.06;5107983;27;45389;-76
2021/11/30 16:22:15;;;;;;;;;23.00;20.33;;;;;8.04;87.45;101123.38;5099644;27;45419;-77
2021/11/30 16:24:40;;;;;;;;;26.00;24.67;;;;;8.13;87.30;101132.25;5099076;27;45487;-78
2021/11/30 16:27:07;;;;;;;;;24.33;22.67;;;;;8.08;87.49;101122.94;5097405;27;47422;-77
2021/11/30 16:29:33;;;;;;;;;23.00;22.67;;;;;8.13;87.22;101116.34;5097850;27;46110;-78
2021/11/30 16:31:59;;;;;;;;;22.67;21.00;;;;;8.12;87.44;101104.94;5100201;27;45332;-78
2021/11/30 16:34:24;;;;;;;;;24.00;21.33;;;;;8.10;87.32;101096.31;5098315;27;45965;-78
2021/11/30 16:36:52;;;;;;;;;27.33;24.00;;;;;8.10;87.42;101096.31;5099146;27;45269;-78
2021/11/30 16:39:25;;;;;;;;;26.67;20.67;;;;;8.15;87.03;101095.88;5097853;27;45424;-76
2021/11/30 16:41:50;;;;;;;;;23.00;20.33;;;;;8.16;86.78;101100.19;5100075;27;45412;-77
2021/11/30 16:44:16;;;;;;;;;25.67;25.00;;;;;8.19;86.82;101100.72;5098542;27;45300;-77
2021/11/30 16:46:44;;;;;;;;;26.67;22.67;;;;;8.19;86.57;101092.78;5097718;27;47802;-76
2021/11/30 16:49:11;;;;;;;;;20.33;20.33;;;;;8.22;86.99;101099.59;5098098;27;45324;-78
2021/11/30 16:51:37;;;;;;;;;24.25;22.50;;;;;8.26;86.46;101097.47;5100065;27;45341;-78
2021/11/30 16:54:04;;;;;;;;;26.00;23.33;;;;;8.21;86.64;101088.16;5097767;27;45440;-79
2021/11/30 16:56:30;;;;;;;;;27.33;25.00;;;;;8.27;86.51;101089.38;5091307;27;45383;-79
2021/11/30 16:58:57;;;;;;;;;23.33;22.33;;;;;8.15;86.84;101058.81;5108376;27;45859;-78
2021/11/30 17:01:22;;;;;;;;;25.00;22.33;;;;;8.15;86.35;101057.00;5093916;27;45289;-78
2021/11/30 17:03:48;;;;;;;;;25.00;22.33;;;;;8.26;86.59;101068.34;5098591;27;45443;-78
2021/11/30 17:06:13;;;;;;;;;21.00;21.00;;;;;8.30;86.25;101061.75;5109837;27;48818;-77
2021/11/30 17:08:39;;;;;;;;;20.33;20.33;;;;;8.30;86.50;101069.72;5107735;27;45384;-77
2021/11/30 17:11:04;;;;;;;;;27.67;26.67;;;;;8.28;86.38;101066.38;5101255;27;45378;-76
2021/11/30 17:13:29;;;;;;;;;19.33;19.33;;;;;8.23;86.03;101058.88;5086915;27;45597;-78
2021/11/30 17:15:55;;;;;;;;;23.00;22.00;;;;;8.29;86.25;101068.88;5092676;27;45558;-76
2021/11/30 17:18:20;;;;;;;;;24.00;23.67;;;;;8.27;85.91;101070.00;5091393;27;45362;-76
2021/11/30 17:20:46;;;;;;;;;19.67;19.67;;;;;8.34;86.17;101076.38;5104037;27;45386;-78
2021/11/30 17:23:17;;;;;;;;;21.67;21.00;;;;;8.32;85.99;101071.22;5086764;27;47012;-77
2021/11/30 17:25:44;;;;;;;;;22.67;22.67;;;;;8.41;85.94;101082.72;5089107;27;46371;-77
2021/11/30 17:28:09;;;;;;;;;23.67;23.00;;;;;8.37;85.88;101061.97;5100722;27;45796;-76
2021/11/30 17:30:36;;;;;;;;;20.00;19.00;;;;;8.36;85.66;101061.16;5091537;27;45832;-76
2021/11/30 17:33:03;;;;;;;;;24.00;21.00;;;;;8.40;85.86;101062.53;5107199;27;46218;-77
2021/11/30 17:35:29;;;;;;;;;21.33;18.33;;;;;8.35;85.74;101062.13;5090630;27;45396;-75
2021/11/30 17:37:55;;;;;;;;;18.33;16.67;;;;;8.42;85.77;101062.38;5090742;27;45356;-77
2021/11/30 17:40:22;;;;;;;;;21.33;21.00;;;;;8.49;85.69;101057.28;5100956;27;45475;-77
2021/11/30 17:42:48;;;;;;;;;16.67;16.00;;;;;8.51;85.46;101060.63;5103233;27;47239;-79
2021/11/30 17:45:14;;;;;;;;;22.33;19.33;;;;;8.46;85.46;101053.97;5095718;27;45468;-77
2021/11/30 17:47:40;;;;;;;;;19.33;18.33;;;;;8.55;85.29;101062.84;5110190;27;45667;-79
2021/11/30 17:50:08;;;;;;;;;23.00;20.33;;;;;8.57;85.17;101068.84;5113347;27;45389;-77
2021/11/30 17:52:34;;;;;;;;;23.67;22.33;;;;;8.57;84.90;101062.69;5100357;27;45532;-75
2021/11/30 17:54:59;;;;;;;;;21.00;19.67;;;;;8.55;85.13;101054.06;5115724;27;47027;-75
2021/11/30 17:57:24;;;;;;;;;23.33;22.33;;;;;8.59;84.99;101053.59;5112113;27;45221;-77
2021/11/30 17:59:50;;;;;;;;;19.67;18.00;;;;;8.53;84.78;101048.06;5092816;27;45266;-77
2021/11/30 18:02:23;;;;;;;;;21.33;20.00;;;;;8.55;84.79;101041.66;5092769;27;45222;-77
2021/11/30 18:04:48;;;;;;;;;18.00;15.00;;;;;8.56;85.17;101042.50;5084261;27;46471;-76
2021/11/30 18:07:14;;;;;;;;;22.67;21.00;;;;;8.66;84.77;101060.94;5096044;27;45158;-76
2021/11/30 18:09:39;;;;;;;;;18.67;17.33;;;;;8.65;84.54;101059.28;5095809;27;45261;-76
2021/11/30 18:12:09;;;;;;;;;20.67;19.67;;;;;8.63;84.60;101048.84;5094124;27;45444;-76
2021/11/30 18:14:35;;;;;;;;;19.00;18.33;;;;;8.62;84.82;101055.09;5094961;27;45514;-75
2021/11/30 18:17:00;;;;;;;;;20.00;19.67;;;;;8.67;84.42;101050.19;5091813;27;45376;-78
2021/11/30 18:19:26;;;;;;;;;17.33;16.67;;;;;8.66;84.34;101045.88;5090150;27;45351;-76
2021/11/30 18:21:54;;;;;;;;;18.00;18.00;;;;;8.70;84.47;101049.88;5106556;27;45948;-76
2021/11/30 18:24:20;;;;;;;;;20.00;18.67;;;;;8.67;84.69;101028.16;5086975;27;45677;-77
2021/11/30 18:26:45;;;;;;;;;17.67;17.67;;;;;8.67;84.52;101036.94;5096298;27;45177;-78
2021/11/30 18:29:10;;;;;;;;;18.67;17.00;;;;;8.63;84.39;101027.63;5093071;27;45671;-77
2021/11/30 18:31:36;;;;;;;;;12.67;11.33;;;;;8.67;84.39;101033.44;5086461;27;47292;-75
2021/11/30 18:34:01;;;;;;;;;15.00;15.00;;;;;8.68;84.39;101041.25;5095898;27;45266;-75
2021/11/30 18:36:26;;;;;;;;;20.33;18.67;;;;;8.69;84.52;101044.72;5095237;27;45344;-76
2021/11/30 18:38:52;;;;;;;;;19.33;18.00;;;;;8.65;84.47;101028.31;5100449;27;45344;-77
2021/11/30 18:41:18;;;;;;;;;19.67;18.67;;;;;8.66;84.42;101035.28;5094603;27;45329;-75
2021/11/30 18:43:43;;;;;;;;;22.33;20.67;;;;;8.74;85.12;101044.28;5091199;27;46101;-79
2021/11/30 18:46:11;;;;;;;;;20.00;20.00;;;;;8.70;84.65;101033.13;5094885;27;46055;-81
2021/11/30 18:48:36;;;;;;;;;20.33;18.67;;;;;8.72;84.63;101036.47;5104668;27;45336;-76
2021/11/30 18:51:02;;;;;;;;;21.00;21.00;;;;;8.74;84.75;101034.50;5096223;27;45530;-79
2021/11/30 18:53:27;;;;;;;;;21.67;19.67;;;;;8.78;84.71;101037.66;5083859;27;45336;-80
2021/11/30 18:55:52;;;;;;;;;25.67;21.00;;;;;8.68;84.56;101020.03;5101580;27;45841;-79
2021/11/30 18:58:18;;;;;;;;;22.67;22.67;;;;;8.74;84.37;101023.88;5111857;27;45403;-78
2021/11/30 19:00:44;;;;;;;;;20.33;20.00;;;;;8.74;84.77;101023.88;5090110;27;45462;-78
2021/11/30 19:03:09;;;;;;;;;20.00;18.33;;;;;8.76;84.45;101021.94;5090030;27;46099;-78
2021/11/30 19:05:34;;;;;;;;;20.00;20.00;;;;;8.74;84.68;101021.22;5090677;27;45395;-77
2021/11/30 19:08:00;;;;;;;;;22.00;21.67;;;;;8.75;84.49;101022.06;5095967;27;45298;-76
2021/11/30 19:10:26;;;;;;;;;24.67;24.67;;;;;8.81;84.52;101024.94;5090920;27;46313;-76
2021/11/30 19:12:53;;;;;;;;;19.33;19.33;;;;;8.82;84.64;101023.97;5089657;27;45382;-78
2021/11/30 19:15:19;;;;;;;;;23.67;19.33;;;;;8.69;84.36;100995.22;5101277;27;45487;-77
2021/11/30 19:17:44;;;;;;;;;22.67;22.00;;;;;8.79;84.54;101005.72;5087321;27;45393;-78
2021/11/30 19:20:10;;;;;;;;;24.00;22.00;;;;;8.70;84.59;100985.44;5091685;27;45426;-78
2021/11/30 19:22:36;;;;;;;;;22.67;21.67;;;;;8.79;84.49;100999.56;5105164;27;47245;-78
2021/11/30 19:25:04;;;;;;;;;21.33;20.00;;;;;8.80;84.74;101007.38;5090432;27;45439;-75
2021/11/30 19:27:29;;;;;;;;;20.00;19.67;;;;;8.77;84.72;100988.31;5090381;27;45384;-76
2021/11/30 19:29:55;;;;;;;;;19.67;19.00;;;;;8.80;84.92;100991.47;5089380;27;46053;-74
2021/11/30 19:32:21;;;;;;;;;19.00;19.00;;;;;8.78;84.68;100980.22;5104915;27;47009;-74
2021/11/30 19:34:47;;;;;;;;;20.33;18.33;;;;;8.80;84.55;100975.56;5090309;27;45401;-76
2021/11/30 19:37:18;;;;;;;;;22.67;20.67;;;;;8.76;84.75;100965.44;5108198;27;45429;-75
2021/11/30 19:39:44;;;;;;;;;22.00;22.00;;;;;8.80;84.57;100975.56;5090666;27;45418;-77
2021/11/30 19:42:09;;;;;;;;;21.33;21.00;;;;;8.79;84.36;100967.75;5093980;27;45559;-77
2021/11/30 19:44:39;;;;;;;;;24.33;23.00;;;;;8.86;84.52;100971.44;5095639;27;45365;-77
2021/11/30 19:47:04;;;;;;;;;25.00;21.67;;;;;8.83;84.23;100969.94;5109207;27;45464;-77
2021/11/30 19:49:30;;;;;;;;;20.67;18.67;;;;;8.76;84.53;100968.91;5080558;27;45300;-78
2021/11/30 19:51:55;;;;;;;;;19.33;17.00;;;;;8.74;84.60;100957.63;5089528;27;45330;-75
2021/11/30 19:54:20;;;;;;;;;22.67;22.00;;;;;8.77;84.42;100964.47;5082709;27;45239;-76
2021/11/30 19:56:46;;;;;;;;;21.33;20.33;;;;;8.75;84.41;100961.13;5091559;27;45251;-76
2021/11/30 19:59:11;;;;;;;;;20.67;20.67;;;;;8.81;84.64;100960.50;5095801;27;46070;-75
2021/11/30 20:07:06;;;;;;;;;22.00;22.00;;;;;8.77;84.44;100954.66;5090345;27;45322;-77
2021/11/30 20:09:32;;;;;;;;;22.33;22.33;;;;;8.86;84.42;100966.16;5090818;27;45334;-75
2021/11/30 20:11:58;;;;;;;;;24.67;22.67;;;;;8.79;84.40;100965.97;5096435;27;47956;-76
2021/11/30 20:14:24;;;;;;;;;20.33;20.33;;;;;8.78;84.29;100955.50;5081643;27;45279;-78
2021/11/30 20:16:50;;;;;;;;;25.33;24.00;;;;;8.73;84.61;100945.38;5088572;27;45196;-78